Schedule Details

Flight Number: ASX457
Departure: Mashad International Airport (OIMM) at 17:40
Arrival: Kathmandu (VNKT) at 22:30
Route: CHARN N636 PAROD P628 RK G452 CHI V10 ALI R460 LKN G598 SMR

Weather Information
OIMM 120600Z 13006KT CAVOK 05/M06 Q1025 A3030
VNKT 120550Z 09003KT 6000 FEW020 19/09 Q1021 NOSIG

Schedule Frequency

Route Map